| time (UTC) | temp F | wind direction | speed MPH | gust MPH | rain 1hr in | rain 24hr in | rain mn in | humidity % | barometer mb |
| 20260507021526 | 60 | 217 | 0.0 | 0.0 | 0.00 | 0.00 | 0.00 | 72 | 1020.1 |
| 20260507020037 | 61 | 229 | 2.0 | 2.0 | 0.00 | 0.00 | 0.00 | 71 | 1020.1 |
| 20260507014526 | 61 | 170 | 2.0 | 2.0 | 0.00 | 0.00 | 0.00 | 71 | 1020.0 |
| 20260507013023 | 59 | 188 | 3.0 | 3.0 | 0.00 | 0.00 | 0.00 | 73 | 1020.0 |
| 20260507011537 | 59 | 224 | 3.0 | 3.0 | 0.00 | 0.00 | 0.00 | 73 | 1020.0 |
| 20260507010032 | 59 | 178 | 2.0 | 2.0 | 0.00 | 0.00 | 0.00 | 72 | 1020.1 |
| 20260507004522 | 60 | 221 | 4.0 | 4.0 | 0.00 | 0.00 | 0.00 | 72 | 1020.1 |
| 20260507003035 | 60 | 237 | 1.0 | 1.0 | 0.00 | 0.00 | 0.00 | 70 | 1020.1 |
| 20260507001524 | 60 | 246 | 2.0 | 2.0 | 0.00 | 0.00 | 0.00 | 69 | 1020.1 |
| 20260507000037 | 60 | 179 | 2.0 | 2.0 | 0.00 | 0.00 | 0.00 | 71 | 1020.1 |
| 20260506234530 | 61 | 155 | 3.0 | 3.0 | 0.00 | 0.00 | 0.00 | 70 | 1020.1 |
| 20260506233023 | 61 | 219 | 1.0 | 1.0 | 0.00 | 0.00 | 0.00 | 70 | 1020.0 |
| 20260506231520 | 60 | 200 | 0.0 | 0.0 | 0.00 | 0.00 | 0.00 | 71 | 1020.1 |
| 20260506230031 | 61 | 268 | 4.0 | 4.0 | 0.00 | 0.00 | 0.00 | 69 | 1020.1 |
| 20260506224525 | 61 | 157 | 4.0 | 4.0 | 0.00 | 0.00 | 0.00 | 70 | 1020.1 |
| 20260506223037 | 61 | 275 | 2.0 | 2.0 | 0.00 | 0.00 | 0.00 | 71 | 1020.1 |
| 20260506221527 | 61 | 175 | 2.0 | 2.0 | 0.00 | 0.00 | 0.00 | 70 | 1020.2 |
| 20260506220021 | 61 | 244 | 2.0 | 2.0 | 0.00 | 0.00 | 0.00 | 71 | 1020.2 |
| 20260506214534 | 61 | 176 | 2.0 | 2.0 | 0.00 | 0.00 | 0.00 | 71 | 1020.2 |
| 20260506213029 | 60 | 169 | 7.0 | 7.0 | 0.00 | 0.00 | 0.00 | 73 | 1020.1 |
| 20260506211520 | 59 | 215 | 3.0 | 3.0 | 0.00 | 0.00 | 0.00 | 75 | 1020.2 |
| 20260506210035 | 59 | 242 | 2.0 | 2.0 | 0.00 | 0.00 | 0.00 | 79 | 1020.2 |
| 20260506204545 | 58 | 184 | 3.0 | 3.0 | 0.00 | 0.00 | 0.00 | 78 | 1020.2 |
| 20260506203034 | 59 | 167 | 1.0 | 1.0 | 0.00 | 0.00 | 0.00 | 79 | 1020.2 |
| 20260506201528 | 57 | 227 | 1.0 | 1.0 | 0.00 | 0.00 | 0.00 | 81 | 1020.2 |
| 20260506200021 | 57 | 197 | 1.0 | 1.0 | 0.00 | 0.00 | 0.00 | 81 | 1020.2 |
| 20260506194536 | 57 | 172 | 3.0 | 3.0 | 0.00 | 0.00 | 0.00 | 83 | 1020.2 |
| 20260506193027 | 57 | 201 | 0.0 | 0.0 | 0.00 | 0.00 | 0.00 | 83 | 1019.9 |
| 20260506191520 | 56 | 175 | 0.0 | 0.0 | 0.00 | 0.00 | 0.00 | 83 | 1019.9 |
| 20260506190057 | 57 | 180 | 3.0 | 3.0 | 0.00 | 0.00 | 0.00 | 84 | 1019.8 |
| 20260506184526 | 56 | 217 | 0.0 | 0.0 | 0.00 | 0.00 | 0.00 | 85 | 1019.7 |
| 20260506183021 | 57 | 158 | 0.0 | 0.0 | 0.00 | 0.00 | 0.00 | 85 | 1019.7 |
| 20260506181530 | 57 | 239 | 3.0 | 3.0 | 0.00 | 0.00 | 0.00 | 84 | 1019.6 |
| 20260506180023 | 57 | 187 | 2.0 | 2.0 | 0.00 | 0.00 | 0.00 | 83 | 1019.7 |
| 20260506174536 | 57 | 236 | 3.0 | 3.0 | 0.00 | 0.00 | 0.00 | 85 | 1019.6 |
| 20260506173030 | 57 | 182 | 1.0 | 1.0 | 0.00 | 0.00 | 0.00 | 86 | 1019.2 |
| 20260506171525 | 56 | 45 | 0.0 | 0.0 | 0.00 | 0.00 | 0.00 | 87 | 1019.3 |
| 20260506170035 | 56 | 305 | 0.0 | 0.0 | 0.00 | 0.00 | 0.00 | 88 | 1019.5 |
| 20260506164532 | 55 | 86 | 0.0 | 0.0 | 0.00 | 0.00 | 0.00 | 89 | 1019.2 |
| 20260506163021 | 55 | 130 | 0.0 | 0.0 | 0.00 | 0.00 | 0.00 | 90 | 1019.6 |
| 20260506161531 | 55 | 153 | 1.0 | 1.0 | 0.00 | 0.00 | 0.00 | 90 | 1019.5 |
| 20260506160025 | 55 | 162 | 0.0 | 0.0 | 0.00 | 0.00 | 0.00 | 91 | 1019.3 |
| 20260506154556 | 54 | 153 | 0.0 | 0.0 | 0.00 | 0.00 | 0.00 | 92 | 1019.1 |
| 20260506153027 | 54 | 153 | 1.0 | 1.0 | 0.00 | 0.00 | 0.00 | 93 | 1018.9 |
| 20260506151538 | 53 | 109 | 0.0 | 0.0 | 0.00 | 0.00 | 0.00 | 93 | 1019.1 |
| 20260506150026 | 53 | 109 | 0.0 | 0.0 | 0.00 | 0.00 | 0.00 | 93 | 1019.2 |
| 20260506144540 | 53 | 109 | 0.0 | 0.0 | 0.00 | 0.00 | 0.00 | 93 | 1019.1 |
| 20260506143050 | 53 | 109 | 0.0 | 0.0 | 0.00 | 0.00 | 0.00 | 94 | 1018.8 |
| 20260506141523 | 53 | 109 | 0.0 | 0.0 | 0.00 | 0.00 | 0.00 | 95 | 1018.8 |
| 20260506140036 | 52 | 109 | 0.0 | 0.0 | 0.00 | 0.00 | 0.00 | 94 | 1018.7 |
| 20260506134526 | 52 | 109 | 0.0 | 0.0 | 0.00 | 0.00 | 0.00 | 94 | 1018.6 |
| 20260506133039 | 51 | 109 | 0.0 | 0.0 | 0.00 | 0.00 | 0.00 | 94 | 1018.7 |
| 20260506131529 | 51 | 109 | 0.0 | 0.0 | 0.00 | 0.00 | 0.00 | 94 | 1018.6 |
| 20260506130023 | 51 | 109 | 0.0 | 0.0 | 0.00 | 0.00 | 0.00 | 94 | 1018.6 |
| 20260506124534 | 51 | 109 | 0.0 | 0.0 | 0.00 | 0.00 | 0.00 | 94 | 1018.2 |
| 20260506123028 | 51 | 109 | 0.0 | 0.0 | 0.00 | 0.00 | 0.00 | 94 | 1018.2 |
| 20260506121517 | 51 | 109 | 0.0 | 0.0 | 0.00 | 0.00 | 0.00 | 94 | 1018.3 |
| 20260506120032 | 51 | 109 | 0.0 | 0.0 | 0.00 | 0.00 | 0.00 | 94 | 1018.4 |
| 20260506114527 | 51 | 109 | 0.0 | 0.0 | 0.00 | 0.00 | 0.00 | 94 | 1018.1 |
| 20260506113020 | 50 | 109 | 0.0 | 0.0 | 0.00 | 0.00 | 0.00 | 94 | 1018.1 |
| 20260506111538 | 50 | 109 | 0.0 | 0.0 | 0.00 | 0.00 | 0.00 | 94 | 1017.9 |
| 20260506110027 | 49 | 109 | 0.0 | 0.0 | 0.00 | 0.00 | 0.00 | 94 | 1017.6 |
| 20260506104542 | 49 | 109 | 0.0 | 0.0 | 0.00 | 0.00 | 0.00 | 94 | 1017.6 |
| 20260506103054 | 48 | 109 | 0.0 | 0.0 | 0.00 | 0.00 | 0.00 | 94 | 1017.4 |
| 20260506101543 | 48 | 109 | 0.0 | 0.0 | 0.00 | 0.00 | 0.00 | 94 | 1017.3 |
| 20260506100020 | 47 | 109 | 0.0 | 0.0 | 0.00 | 0.00 | 0.00 | 94 | 1017.2 |
| 20260506094533 | 46 | 109 | 0.0 | 0.0 | 0.00 | 0.00 | 0.00 | 93 | 1017.1 |
| 20260506093027 | 46 | 109 | 0.0 | 0.0 | 0.00 | 0.00 | 0.00 | 92 | 1017.1 |
| 20260506091557 | 47 | 109 | 0.0 | 0.0 | 0.00 | 0.00 | 0.00 | 92 | 1017.1 |
| 20260506090027 | 47 | 109 | 0.0 | 0.0 | 0.00 | 0.00 | 0.00 | 92 | 1017.1 |
| 20260506084522 | 47 | 109 | 0.0 | 0.0 | 0.00 | 0.00 | 0.00 | 91 | 1017.0 |
| 20260506083031 | 48 | 109 | 0.0 | 0.0 | 0.00 | 0.00 | 0.00 | 91 | 1016.8 |
| 20260506081545 | 48 | 109 | 0.0 | 0.0 | 0.00 | 0.00 | 0.00 | 91 | 1016.6 |
| 20260506073022 | 50 | 109 | 0.0 | 0.0 | 0.00 | 0.00 | 0.00 | 91 | 1016.3 |
| 20260506071531 | 50 | 109 | 0.0 | 0.0 | 0.00 | 0.00 | 0.00 | 91 | 1016.4 |
| 20260506061521 | 51 | 109 | 0.0 | 0.0 | 0.00 | 0.00 | 0.00 | 90 | 1016.2 |
| 20260506044532 | 55 | 109 | 0.0 | 0.0 | 0.00 | 0.00 | 0.00 | 86 | 1015.5 |
| 20260506043027 | 56 | 109 | 0.0 | 0.0 | 0.00 | 0.00 | 0.00 | 85 | 1015.4 |
| 20260506041517 | 57 | 109 | 0.0 | 0.0 | 0.00 | 0.00 | 0.00 | 83 | 1015.0 |
| 20260506040033 | 58 | 109 | 0.0 | 0.0 | 0.00 | 0.00 | 0.00 | 82 | 1014.9 |
| 20260506034523 | 60 | 109 | 0.0 | 0.0 | 0.00 | 0.00 | 0.00 | 79 | 1015.0 |
| 20260506033036 | 61 | 109 | 0.0 | 0.0 | 0.00 | 0.00 | 0.00 | 77 | 1014.8 |
| 20260506031532 | 63 | 109 | 0.0 | 0.0 | 0.00 | 0.00 | 0.00 | 75 | 1014.6 |
| 20260506030040 | 64 | 109 | 0.0 | 0.0 | 0.00 | 0.00 | 0.00 | 73 | 1014.5 |
| 20260506024554 | 66 | 109 | 0.0 | 0.0 | 0.00 | 0.00 | 0.00 | 70 | 1014.5 |
| 20260506023045 | 67 | 109 | 0.0 | 0.0 | 0.00 | 0.00 | 0.00 | 68 | 1014.4 |